Terminal Aerodrome Forecast
Issued by NWS

Home | Current Version | Previous Version | Graphics & Text | Print | Product List | Glossary On
Versions: 1 2 3 4 5 6 7 8 9 10 11 12 13 14 15
000
FTUS43 KMPX 290422 AAA
TAFAXN
TAF AMD
KAXN 290422Z 2904/2924 32008KT P6SM SKC
     FM291500 31008G17KT P6SM FEW050
     FM292000 31010G18KT P6SM VCSH SCT050 BKN120=

USA.gov is the U.S. government's official web portal to all federal, state and local government web resources and services.